sensor_id;sensor_type;location;lat;lon;timestamp;P1;durP1;ratioP1;P2;durP2;ratioP2
36205;SDS011;22242;48.796;9.930;2022-07-26T00:00:47;5.50;;;1.50;;
36205;SDS011;22242;48.796;9.930;2022-07-26T00:03:15;3.38;;;1.67;;
36205;SDS011;22242;48.796;9.930;2022-07-26T00:05:43;2.63;;;1.80;;
36205;SDS011;22242;48.796;9.930;2022-07-26T00:08:10;5.28;;;1.60;;
36205;SDS011;22242;48.796;9.930;2022-07-26T00:10:37;3.60;;;1.42;;
36205;SDS011;22242;48.796;9.930;2022-07-26T00:13:06;2.80;;;1.80;;
36205;SDS011;22242;48.796;9.930;2022-07-26T00:15:33;6.32;;;2.00;;
36205;SDS011;22242;48.796;9.930;2022-07-26T00:18:02;4.90;;;1.80;;
36205;SDS011;22242;48.796;9.930;2022-07-26T00:20:30;3.83;;;1.58;;
36205;SDS011;22242;48.796;9.930;2022-07-26T00:22:57;3.60;;;1.63;;
36205;SDS011;22242;48.796;9.930;2022-07-26T00:25:25;4.25;;;1.80;;
36205;SDS011;22242;48.796;9.930;2022-07-26T00:27:52;3.15;;;1.35;;
36205;SDS011;22242;48.796;9.930;2022-07-26T00:30:19;5.32;;;1.88;;
36205;SDS011;22242;48.796;9.930;2022-07-26T00:32:46;3.78;;;2.10;;
36205;SDS011;22242;48.796;9.930;2022-07-26T00:35:13;4.88;;;1.48;;
36205;SDS011;22242;48.796;9.930;2022-07-26T00:37:42;2.35;;;1.85;;
36205;SDS011;22242;48.796;9.930;2022-07-26T00:40:09;5.63;;;1.65;;
36205;SDS011;22242;48.796;9.930;2022-07-26T00:42:37;4.15;;;1.30;;
36205;SDS011;22242;48.796;9.930;2022-07-26T00:45:04;3.60;;;1.50;;
36205;SDS011;22242;48.796;9.930;2022-07-26T00:47:34;4.47;;;1.77;;
36205;SDS011;22242;48.796;9.930;2022-07-26T00:50:02;4.63;;;1.52;;
36205;SDS011;22242;48.796;9.930;2022-07-26T00:52:30;3.40;;;1.50;;
36205;SDS011;22242;48.796;9.930;2022-07-26T00:54:58;2.67;;;1.58;;
36205;SDS011;22242;48.796;9.930;2022-07-26T00:57:25;3.92;;;1.30;;
36205;SDS011;22242;48.796;9.930;2022-07-26T00:59:52;6.00;;;1.67;;
36205;SDS011;22242;48.796;9.930;2022-07-26T01:02:19;4.93;;;1.42;;
36205;SDS011;22242;48.796;9.930;2022-07-26T01:04:46;3.97;;;1.40;;
36205;SDS011;22242;48.796;9.930;2022-07-26T01:07:13;5.63;;;1.70;;
36205;SDS011;22242;48.796;9.930;2022-07-26T01:09:41;6.13;;;2.00;;
36205;SDS011;22242;48.796;9.930;2022-07-26T01:12:09;2.72;;;1.40;;
36205;SDS011;22242;48.796;9.930;2022-07-26T01:14:36;5.30;;;1.27;;
36205;SDS011;22242;48.796;9.930;2022-07-26T01:17:04;2.58;;;1.42;;
36205;SDS011;22242;48.796;9.930;2022-07-26T01:19:31;3.88;;;1.40;;
36205;SDS011;22242;48.796;9.930;2022-07-26T01:21:59;6.13;;;1.63;;
36205;SDS011;22242;48.796;9.930;2022-07-26T01:24:26;1.83;;;1.45;;
36205;SDS011;22242;48.796;9.930;2022-07-26T01:26:53;2.30;;;1.23;;
36205;SDS011;22242;48.796;9.930;2022-07-26T01:29:24;4.80;;;1.30;;
36205;SDS011;22242;48.796;9.930;2022-07-26T01:31:51;2.63;;;1.40;;
36205;SDS011;22242;48.796;9.930;2022-07-26T01:34:18;2.22;;;1.17;;
36205;SDS011;22242;48.796;9.930;2022-07-26T01:36:45;1.75;;;1.08;;
36205;SDS011;22242;48.796;9.930;2022-07-26T01:39:14;2.83;;;1.30;;
36205;SDS011;22242;48.796;9.930;2022-07-26T01:41:41;2.13;;;1.23;;
36205;SDS011;22242;48.796;9.930;2022-07-26T01:44:08;2.80;;;1.10;;
36205;SDS011;22242;48.796;9.930;2022-07-26T01:46:35;1.83;;;1.58;;
36205;SDS011;22242;48.796;9.930;2022-07-26T01:49:02;5.97;;;1.25;;
36205;SDS011;22242;48.796;9.930;2022-07-26T01:51:29;5.13;;;1.60;;
36205;SDS011;22242;48.796;9.930;2022-07-26T01:53:56;2.65;;;1.65;;
36205;SDS011;22242;48.796;9.930;2022-07-26T01:56:24;3.83;;;1.20;;
36205;SDS011;22242;48.796;9.930;2022-07-26T01:58:51;3.03;;;1.20;;
36205;SDS011;22242;48.796;9.930;2022-07-26T02:01:18;5.53;;;1.80;;
36205;SDS011;22242;48.796;9.930;2022-07-26T02:03:45;3.97;;;1.70;;
36205;SDS011;22242;48.796;9.930;2022-07-26T02:06:12;2.50;;;1.48;;
36205;SDS011;22242;48.796;9.930;2022-07-26T02:08:39;2.80;;;1.42;;
36205;SDS011;22242;48.796;9.930;2022-07-26T02:11:06;3.80;;;1.40;;
36205;SDS011;22242;48.796;9.930;2022-07-26T02:13:36;1.60;;;1.30;;
36205;SDS011;22242;48.796;9.930;2022-07-26T02:16:04;5.15;;;2.25;;
36205;SDS011;22242;48.796;9.930;2022-07-26T02:18:33;3.72;;;1.60;;
36205;SDS011;22242;48.796;9.930;2022-07-26T02:21:02;6.28;;;2.45;;
36205;SDS011;22242;48.796;9.930;2022-07-26T02:23:30;5.63;;;2.00;;
36205;SDS011;22242;48.796;9.930;2022-07-26T02:25:58;2.67;;;1.67;;
36205;SDS011;22242;48.796;9.930;2022-07-26T02:28:26;3.63;;;2.03;;
36205;SDS011;22242;48.796;9.930;2022-07-26T02:30:54;3.30;;;1.70;;
36205;SDS011;22242;48.796;9.930;2022-07-26T02:33:21;2.78;;;1.60;;
36205;SDS011;22242;48.796;9.930;2022-07-26T02:35:48;4.10;;;1.63;;
36205;SDS011;22242;48.796;9.930;2022-07-26T02:38:15;4.25;;;1.88;;
36205;SDS011;22242;48.796;9.930;2022-07-26T02:40:42;2.95;;;1.67;;
36205;SDS011;22242;48.796;9.930;2022-07-26T02:43:09;2.50;;;1.80;;
36205;SDS011;22242;48.796;9.930;2022-07-26T02:45:37;2.67;;;1.60;;
36205;SDS011;22242;48.796;9.930;2022-07-26T02:48:05;3.28;;;1.83;;
36205;SDS011;22242;48.796;9.930;2022-07-26T02:50:32;2.15;;;1.40;;
36205;SDS011;22242;48.796;9.930;2022-07-26T02:52:59;2.45;;;1.40;;
36205;SDS011;22242;48.796;9.930;2022-07-26T02:55:26;2.00;;;1.58;;
36205;SDS011;22242;48.796;9.930;2022-07-26T02:57:53;2.28;;;1.42;;
36205;SDS011;22242;48.796;9.930;2022-07-26T03:00:23;2.60;;;1.70;;
36205;SDS011;22242;48.796;9.930;2022-07-26T03:02:51;4.20;;;1.42;;
36205;SDS011;22242;48.796;9.930;2022-07-26T03:05:20;3.22;;;1.60;;
36205;SDS011;22242;48.796;9.930;2022-07-26T03:07:48;1.83;;;1.40;;
36205;SDS011;22242;48.796;9.930;2022-07-26T03:10:15;3.08;;;1.45;;
36205;SDS011;22242;48.796;9.930;2022-07-26T03:12:42;2.83;;;1.63;;
36205;SDS011;22242;48.796;9.930;2022-07-26T03:15:09;2.42;;;1.42;;
36205;SDS011;22242;48.796;9.930;2022-07-26T03:17:36;2.75;;;1.30;;
36205;SDS011;22242;48.796;9.930;2022-07-26T03:20:04;2.55;;;1.75;;
36205;SDS011;22242;48.796;9.930;2022-07-26T03:22:33;1.83;;;1.60;;
36205;SDS011;22242;48.796;9.930;2022-07-26T03:25:00;1.42;;;1.33;;
36205;SDS011;22242;48.796;9.930;2022-07-26T03:27:27;2.03;;;1.48;;
36205;SDS011;22242;48.796;9.930;2022-07-26T03:29:54;1.95;;;1.58;;
36205;SDS011;22242;48.796;9.930;2022-07-26T03:32:21;1.63;;;1.42;;
36205;SDS011;22242;48.796;9.930;2022-07-26T03:34:48;4.00;;;1.88;;
36205;SDS011;22242;48.796;9.930;2022-07-26T03:37:15;2.83;;;1.60;;
36205;SDS011;22242;48.796;9.930;2022-07-26T03:39:45;4.72;;;1.35;;
36205;SDS011;22242;48.796;9.930;2022-07-26T03:42:12;3.38;;;1.50;;
36205;SDS011;22242;48.796;9.930;2022-07-26T03:44:39;1.88;;;1.40;;
36205;SDS011;22242;48.796;9.930;2022-07-26T03:47:06;1.60;;;1.33;;
36205;SDS011;22242;48.796;9.930;2022-07-26T03:49:33;2.60;;;1.33;;
36205;SDS011;22242;48.796;9.930;2022-07-26T03:52:00;3.13;;;1.30;;
36205;SDS011;22242;48.796;9.930;2022-07-26T03:54:27;4.07;;;1.30;;
36205;SDS011;22242;48.796;9.930;2022-07-26T03:56:55;3.38;;;1.10;;
36205;SDS011;22242;48.796;9.930;2022-07-26T03:59:21;8.73;;;1.58;;
36205;SDS011;22242;48.796;9.930;2022-07-26T04:01:49;1.27;;;1.13;;
36205;SDS011;22242;48.796;9.930;2022-07-26T04:04:17;3.70;;;1.30;;
36205;SDS011;22242;48.796;9.930;2022-07-26T04:06:44;1.27;;;1.23;;
36205;SDS011;22242;48.796;9.930;2022-07-26T04:09:12;1.90;;;1.40;;
36205;SDS011;22242;48.796;9.930;2022-07-26T04:11:40;2.95;;;1.45;;
36205;SDS011;22242;48.796;9.930;2022-07-26T04:14:09;1.15;;;0.95;;
36205;SDS011;22242;48.796;9.930;2022-07-26T04:16:36;2.15;;;1.55;;
36205;SDS011;22242;48.796;9.930;2022-07-26T04:19:03;2.08;;;1.30;;
36205;SDS011;22242;48.796;9.930;2022-07-26T04:21:30;2.17;;;1.40;;
36205;SDS011;22242;48.796;9.930;2022-07-26T04:23:57;1.48;;;1.38;;
36205;SDS011;22242;48.796;9.930;2022-07-26T04:26:24;2.40;;;1.15;;
36205;SDS011;22242;48.796;9.930;2022-07-26T04:28:53;1.48;;;1.13;;
36205;SDS011;22242;48.796;9.930;2022-07-26T04:31:21;4.05;;;1.27;;
36205;SDS011;22242;48.796;9.930;2022-07-26T04:33:48;1.15;;;1.05;;
36205;SDS011;22242;48.796;9.930;2022-07-26T04:36:15;3.05;;;1.30;;
36205;SDS011;22242;48.796;9.930;2022-07-26T04:38:43;2.05;;;1.10;;
36205;SDS011;22242;48.796;9.930;2022-07-26T04:41:10;3.28;;;1.38;;
36205;SDS011;22242;48.796;9.930;2022-07-26T04:43:37;2.45;;;1.20;;
36205;SDS011;22242;48.796;9.930;2022-07-26T04:46:04;2.10;;;1.30;;
36205;SDS011;22242;48.796;9.930;2022-07-26T04:48:32;2.60;;;1.40;;
36205;SDS011;22242;48.796;9.930;2022-07-26T04:50:59;3.72;;;1.30;;
36205;SDS011;22242;48.796;9.930;2022-07-26T04:53:26;1.40;;;1.25;;
36205;SDS011;22242;48.796;9.930;2022-07-26T04:55:53;1.95;;;1.30;;
36205;SDS011;22242;48.796;9.930;2022-07-26T04:58:20;3.47;;;1.60;;
36205;SDS011;22242;48.796;9.930;2022-07-26T05:00:47;1.45;;;1.20;;
36205;SDS011;22242;48.796;9.930;2022-07-26T05:03:14;1.90;;;1.30;;
36205;SDS011;22242;48.796;9.930;2022-07-26T05:05:43;4.88;;;1.30;;
36205;SDS011;22242;48.796;9.930;2022-07-26T05:08:10;2.38;;;1.38;;
36205;SDS011;22242;48.796;9.930;2022-07-26T05:10:40;2.60;;;1.40;;
36205;SDS011;22242;48.796;9.930;2022-07-26T05:13:07;2.47;;;1.27;;
36205;SDS011;22242;48.796;9.930;2022-07-26T05:15:34;3.58;;;1.42;;
36205;SDS011;22242;48.796;9.930;2022-07-26T05:18:02;1.58;;;1.40;;
36205;SDS011;22242;48.796;9.930;2022-07-26T05:20:30;3.03;;;1.20;;
36205;SDS011;22242;48.796;9.930;2022-07-26T05:22:59;2.35;;;1.15;;
36205;SDS011;22242;48.796;9.930;2022-07-26T05:25:26;2.05;;;1.20;;
36205;SDS011;22242;48.796;9.930;2022-07-26T05:27:53;1.75;;;1.00;;
36205;SDS011;22242;48.796;9.930;2022-07-26T05:30:20;2.53;;;1.42;;
36205;SDS011;22242;48.796;9.930;2022-07-26T05:32:47;1.60;;;1.30;;
36205;SDS011;22242;48.796;9.930;2022-07-26T05:35:14;2.72;;;1.52;;
36205;SDS011;22242;48.796;9.930;2022-07-26T05:37:41;1.83;;;1.10;;
36205;SDS011;22242;48.796;9.930;2022-07-26T05:40:10;1.38;;;1.20;;
36205;SDS011;22242;48.796;9.930;2022-07-26T05:42:38;2.92;;;1.30;;
36205;SDS011;22242;48.796;9.930;2022-07-26T05:45:05;2.63;;;1.08;;
36205;SDS011;22242;48.796;9.930;2022-07-26T05:47:33;4.03;;;1.08;;
36205;SDS011;22242;48.796;9.930;2022-07-26T05:50:00;2.47;;;1.15;;
36205;SDS011;22242;48.796;9.930;2022-07-26T05:52:27;2.65;;;1.20;;
36205;SDS011;22242;48.796;9.930;2022-07-26T05:54:54;3.38;;;1.25;;
36205;SDS011;22242;48.796;9.930;2022-07-26T05:57:23;1.80;;;1.27;;
36205;SDS011;22242;48.796;9.930;2022-07-26T05:59:51;2.10;;;1.30;;
36205;SDS011;22242;48.796;9.930;2022-07-26T06:02:18;2.53;;;1.30;;
36205;SDS011;22242;48.796;9.930;2022-07-26T06:04:45;1.30;;;1.00;;
36205;SDS011;22242;48.796;9.930;2022-07-26T06:07:12;1.58;;;1.13;;
36205;SDS011;22242;48.796;9.930;2022-07-26T06:09:39;1.60;;;1.20;;
36205;SDS011;22242;48.796;9.930;2022-07-26T06:12:06;5.78;;;1.20;;
36205;SDS011;22242;48.796;9.930;2022-07-26T06:14:35;3.00;;;1.23;;
36205;SDS011;22242;48.796;9.930;2022-07-26T06:17:02;2.53;;;1.30;;
36205;SDS011;22242;48.796;9.930;2022-07-26T06:19:29;1.98;;;1.27;;
36205;SDS011;22242;48.796;9.930;2022-07-26T06:21:57;2.50;;;1.45;;
36205;SDS011;22242;48.796;9.930;2022-07-26T06:24:23;4.88;;;1.50;;
36205;SDS011;22242;48.796;9.930;2022-07-26T06:26:50;4.60;;;1.40;;
36205;SDS011;22242;48.796;9.930;2022-07-26T06:29:19;2.47;;;1.20;;
36205;SDS011;22242;48.796;9.930;2022-07-26T06:31:48;4.35;;;1.50;;
36205;SDS011;22242;48.796;9.930;2022-07-26T06:34:15;3.35;;;1.40;;
36205;SDS011;22242;48.796;9.930;2022-07-26T06:36:43;1.63;;;1.27;;
36205;SDS011;22242;48.796;9.930;2022-07-26T06:39:10;1.58;;;1.30;;
36205;SDS011;22242;48.796;9.930;2022-07-26T06:41:37;2.70;;;1.73;;
36205;SDS011;22242;48.796;9.930;2022-07-26T06:44:04;1.60;;;1.50;;
36205;SDS011;22242;48.796;9.930;2022-07-26T06:46:31;2.67;;;1.70;;
36205;SDS011;22242;48.796;9.930;2022-07-26T06:49:00;4.03;;;1.80;;
36205;SDS011;22242;48.796;9.930;2022-07-26T06:51:26;1.58;;;1.48;;
36205;SDS011;22242;48.796;9.930;2022-07-26T06:53:53;2.17;;;1.60;;
36205;SDS011;22242;48.796;9.930;2022-07-26T06:56:20;4.72;;;1.80;;
36205;SDS011;22242;48.796;9.930;2022-07-26T06:58:47;3.25;;;1.75;;
36205;SDS011;22242;48.796;9.930;2022-07-26T07:01:14;3.72;;;1.60;;
36205;SDS011;22242;48.796;9.930;2022-07-26T07:03:41;2.30;;;1.83;;
36205;SDS011;22242;48.796;9.930;2022-07-26T07:06:11;1.58;;;1.45;;
36205;SDS011;22242;48.796;9.930;2022-07-26T07:08:38;2.95;;;1.70;;
36205;SDS011;22242;48.796;9.930;2022-07-26T07:11:05;4.78;;;1.60;;
36205;SDS011;22242;48.796;9.930;2022-07-26T07:13:32;4.63;;;2.15;;
36205;SDS011;22242;48.796;9.930;2022-07-26T07:15:59;4.57;;;1.63;;
36205;SDS011;22242;48.796;9.930;2022-07-26T07:18:26;2.03;;;1.80;;
36205;SDS011;22242;48.796;9.930;2022-07-26T07:20:53;1.98;;;1.75;;
36205;SDS011;22242;48.796;9.930;2022-07-26T07:23:21;2.30;;;1.70;;
36205;SDS011;22242;48.796;9.930;2022-07-26T07:25:48;5.07;;;1.70;;
36205;SDS011;22242;48.796;9.930;2022-07-26T07:28:16;1.73;;;1.63;;
36205;SDS011;22242;48.796;9.930;2022-07-26T07:30:42;3.97;;;1.83;;
36205;SDS011;22242;48.796;9.930;2022-07-26T07:33:09;1.50;;;1.40;;
36205;SDS011;22242;48.796;9.930;2022-07-26T07:35:39;2.35;;;1.70;;
36205;SDS011;22242;48.796;9.930;2022-07-26T07:38:06;3.03;;;1.95;;
36205;SDS011;22242;48.796;9.930;2022-07-26T07:40:35;2.00;;;1.73;;
36205;SDS011;22242;48.796;9.930;2022-07-26T07:43:02;5.53;;;1.50;;
36205;SDS011;22242;48.796;9.930;2022-07-26T07:45:29;3.65;;;1.67;;
36205;SDS011;22242;48.796;9.930;2022-07-26T07:47:56;4.28;;;1.58;;
36205;SDS011;22242;48.796;9.930;2022-07-26T07:50:23;3.05;;;1.73;;
36205;SDS011;22242;48.796;9.930;2022-07-26T07:52:50;3.60;;;1.70;;
36205;SDS011;22242;48.796;9.930;2022-07-26T07:55:17;2.22;;;1.40;;
36205;SDS011;22242;48.796;9.930;2022-07-26T07:57:46;2.72;;;1.50;;
36205;SDS011;22242;48.796;9.930;2022-07-26T08:00:13;2.10;;;1.83;;
36205;SDS011;22242;48.796;9.930;2022-07-26T08:02:43;3.63;;;1.80;;
36205;SDS011;22242;48.796;9.930;2022-07-26T08:05:10;2.35;;;1.60;;
36205;SDS011;22242;48.796;9.930;2022-07-26T08:07:37;2.88;;;1.67;;
36205;SDS011;22242;48.796;9.930;2022-07-26T08:10:04;3.15;;;1.80;;
36205;SDS011;22242;48.796;9.930;2022-07-26T08:12:32;2.50;;;1.73;;
36205;SDS011;22242;48.796;9.930;2022-07-26T08:15:00;4.00;;;1.77;;
36205;SDS011;22242;48.796;9.930;2022-07-26T08:17:27;2.60;;;1.70;;
36205;SDS011;22242;48.796;9.930;2022-07-26T08:19:54;2.00;;;1.77;;
36205;SDS011;22242;48.796;9.930;2022-07-26T08:22:21;4.50;;;1.52;;
36205;SDS011;22242;48.796;9.930;2022-07-26T08:24:48;1.90;;;1.45;;
36205;SDS011;22242;48.796;9.930;2022-07-26T08:27:16;3.17;;;1.48;;
36205;SDS011;22242;48.796;9.930;2022-07-26T08:29:43;5.35;;;2.13;;
36205;SDS011;22242;48.796;9.930;2022-07-26T08:32:11;2.22;;;1.35;;
36205;SDS011;22242;48.796;9.930;2022-07-26T08:34:38;2.28;;;1.50;;
36205;SDS011;22242;48.796;9.930;2022-07-26T08:37:06;4.53;;;1.73;;
36205;SDS011;22242;48.796;9.930;2022-07-26T08:39:32;1.67;;;1.20;;
36205;SDS011;22242;48.796;9.930;2022-07-26T08:42:00;2.47;;;1.35;;
36205;SDS011;22242;48.796;9.930;2022-07-26T08:44:28;3.75;;;1.73;;
36205;SDS011;22242;48.796;9.930;2022-07-26T08:46:55;2.17;;;1.17;;
36205;SDS011;22242;48.796;9.930;2022-07-26T08:49:24;3.70;;;1.65;;
36205;SDS011;22242;48.796;9.930;2022-07-26T08:51:51;3.47;;;1.17;;
36205;SDS011;22242;48.796;9.930;2022-07-26T08:54:18;2.83;;;1.60;;
36205;SDS011;22242;48.796;9.930;2022-07-26T08:56:48;2.97;;;1.40;;
36205;SDS011;22242;48.796;9.930;2022-07-26T08:59:17;4.72;;;1.42;;
36205;SDS011;22242;48.796;9.930;2022-07-26T09:01:51;5.50;;;2.50;;
36205;SDS011;22242;48.796;9.930;2022-07-26T09:04:20;2.05;;;1.27;;
36205;SDS011;22242;48.796;9.930;2022-07-26T09:07:01;3.25;;;1.10;;
36205;SDS011;22242;48.796;9.930;2022-07-26T09:09:30;3.20;;;1.10;;
36205;SDS011;22242;48.796;9.930;2022-07-26T09:11:58;3.83;;;1.13;;
36205;SDS011;22242;48.796;9.930;2022-07-26T09:14:37;4.43;;;1.23;;
36205;SDS011;22242;48.796;9.930;2022-07-26T09:17:05;2.30;;;1.15;;
36205;SDS011;22242;48.796;9.930;2022-07-26T09:19:32;2.40;;;1.30;;
36205;SDS011;22242;48.796;9.930;2022-07-26T09:22:08;2.60;;;1.30;;
36205;SDS011;22242;48.796;9.930;2022-07-26T09:28:24;1.95;;;1.20;;
36205;SDS011;22242;48.796;9.930;2022-07-26T09:30:54;4.55;;;1.13;;
36205;SDS011;22242;48.796;9.930;2022-07-26T09:33:22;2.50;;;1.05;;
36205;SDS011;22242;48.796;9.930;2022-07-26T09:35:58;2.90;;;1.10;;
36205;SDS011;22242;48.796;9.930;2022-07-26T09:38:28;2.08;;;0.90;;
36205;SDS011;22242;48.796;9.930;2022-07-26T09:41:15;1.92;;;1.00;;
36205;SDS011;22242;48.796;9.930;2022-07-26T09:43:44;1.10;;;0.82;;
36205;SDS011;22242;48.796;9.930;2022-07-26T09:46:11;3.95;;;0.90;;
36205;SDS011;22242;48.796;9.930;2022-07-26T09:48:38;3.47;;;1.40;;
36205;SDS011;22242;48.796;9.930;2022-07-26T09:51:05;3.95;;;1.00;;
36205;SDS011;22242;48.796;9.930;2022-07-26T09:53:38;4.40;;;1.05;;
36205;SDS011;22242;48.796;9.930;2022-07-26T09:56:06;2.47;;;0.85;;
36205;SDS011;22242;48.796;9.930;2022-07-26T09:58:34;3.67;;;1.15;;
36205;SDS011;22242;48.796;9.930;2022-07-26T10:01:01;1.15;;;0.80;;
36205;SDS011;22242;48.796;9.930;2022-07-26T10:03:29;4.15;;;0.90;;
36205;SDS011;22242;48.796;9.930;2022-07-26T10:05:57;1.05;;;0.95;;
36205;SDS011;22242;48.796;9.930;2022-07-26T10:08:25;1.92;;;0.88;;
36205;SDS011;22242;48.796;9.930;2022-07-26T10:10:54;2.00;;;0.90;;
36205;SDS011;22242;48.796;9.930;2022-07-26T10:13:27;2.05;;;0.93;;
36205;SDS011;22242;48.796;9.930;2022-07-26T10:15:54;2.17;;;0.98;;
36205;SDS011;22242;48.796;9.930;2022-07-26T10:18:40;2.60;;;0.82;;
36205;SDS011;22242;48.796;9.930;2022-07-26T10:21:18;4.28;;;1.00;;
36205;SDS011;22242;48.796;9.930;2022-07-26T10:23:48;2.22;;;0.90;;
36205;SDS011;22242;48.796;9.930;2022-07-26T10:29:17;3.08;;;0.75;;
36205;SDS011;22242;48.796;9.930;2022-07-26T10:31:50;2.88;;;0.95;;
36205;SDS011;22242;48.796;9.930;2022-07-26T10:34:44;2.03;;;0.70;;
36205;SDS011;22242;48.796;9.930;2022-07-26T10:37:19;1.48;;;0.90;;
36205;SDS011;22242;48.796;9.930;2022-07-26T10:39:49;3.90;;;0.80;;
36205;SDS011;22242;48.796;9.930;2022-07-26T10:42:45;1.95;;;0.57;;
36205;SDS011;22242;48.796;9.930;2022-07-26T10:45:16;2.28;;;0.70;;
36205;SDS011;22242;48.796;9.930;2022-07-26T10:50:39;2.50;;;0.82;;
36205;SDS011;22242;48.796;9.930;2022-07-26T10:53:07;2.78;;;0.85;;
36205;SDS011;22242;48.796;9.930;2022-07-26T10:55:50;4.30;;;1.20;;
36205;SDS011;22242;48.796;9.930;2022-07-26T11:00:56;3.83;;;0.70;;
36205;SDS011;22242;48.796;9.930;2022-07-26T11:03:24;3.63;;;0.90;;
36205;SDS011;22242;48.796;9.930;2022-07-26T11:06:07;1.92;;;0.70;;
36205;SDS011;22242;48.796;9.930;2022-07-26T11:08:35;1.83;;;0.80;;
36205;SDS011;22242;48.796;9.930;2022-07-26T11:11:03;2.03;;;0.70;;
36205;SDS011;22242;48.796;9.930;2022-07-26T11:13:31;1.05;;;0.70;;
36205;SDS011;22242;48.796;9.930;2022-07-26T11:16:01;1.17;;;0.65;;
36205;SDS011;22242;48.796;9.930;2022-07-26T11:18:29;1.45;;;0.95;;
36205;SDS011;22242;48.796;9.930;2022-07-26T11:21:07;2.00;;;0.73;;
36205;SDS011;22242;48.796;9.930;2022-07-26T11:23:36;4.93;;;0.95;;
36205;SDS011;22242;48.796;9.930;2022-07-26T11:28:52;3.42;;;0.80;;
36205;SDS011;22242;48.796;9.930;2022-07-26T11:31:24;2.47;;;0.98;;
36205;SDS011;22242;48.796;9.930;2022-07-26T11:33:54;1.63;;;0.77;;
36205;SDS011;22242;48.796;9.930;2022-07-26T11:36:34;1.95;;;0.55;;
36205;SDS011;22242;48.796;9.930;2022-07-26T11:39:03;1.35;;;0.68;;
36205;SDS011;22242;48.796;9.930;2022-07-26T11:41:34;1.45;;;0.80;;
36205;SDS011;22242;48.796;9.930;2022-07-26T11:44:01;1.77;;;0.93;;
36205;SDS011;22242;48.796;9.930;2022-07-26T11:46:36;1.35;;;0.88;;
36205;SDS011;22242;48.796;9.930;2022-07-26T11:49:10;1.08;;;0.68;;
36205;SDS011;22242;48.796;9.930;2022-07-26T11:51:39;4.25;;;0.90;;
36205;SDS011;22242;48.796;9.930;2022-07-26T11:54:13;1.65;;;0.85;;
36205;SDS011;22242;48.796;9.930;2022-07-26T11:56:42;1.35;;;0.82;;
36205;SDS011;22242;48.796;9.930;2022-07-26T11:59:15;2.25;;;0.85;;
36205;SDS011;22242;48.796;9.930;2022-07-26T12:01:43;1.80;;;0.85;;
36205;SDS011;22242;48.796;9.930;2022-07-26T12:04:16;1.77;;;0.80;;
36205;SDS011;22242;48.796;9.930;2022-07-26T12:06:44;2.92;;;0.88;;
36205;SDS011;22242;48.796;9.930;2022-07-26T12:09:25;2.03;;;0.73;;
36205;SDS011;22242;48.796;9.930;2022-07-26T12:11:54;2.53;;;0.90;;
36205;SDS011;22242;48.796;9.930;2022-07-26T12:14:25;1.35;;;0.90;;
36205;SDS011;22242;48.796;9.930;2022-07-26T12:16:52;1.48;;;0.80;;
36205;SDS011;22242;48.796;9.930;2022-07-26T12:19:27;2.28;;;1.05;;
36205;SDS011;22242;48.796;9.930;2022-07-26T12:21:56;4.93;;;0.90;;
36205;SDS011;22242;48.796;9.930;2022-07-26T12:24:34;4.80;;;0.85;;
36205;SDS011;22242;48.796;9.930;2022-07-26T12:27:05;1.90;;;0.73;;
36205;SDS011;22242;48.796;9.930;2022-07-26T12:29:34;3.92;;;0.90;;
36205;SDS011;22242;48.796;9.930;2022-07-26T12:32:05;1.85;;;1.02;;
36205;SDS011;22242;48.796;9.930;2022-07-26T12:34:34;0.88;;;0.70;;
36205;SDS011;22242;48.796;9.930;2022-07-26T12:37:12;2.10;;;0.85;;
36205;SDS011;22242;48.796;9.930;2022-07-26T12:39:41;2.97;;;0.70;;
36205;SDS011;22242;48.796;9.930;2022-07-26T12:42:27;3.28;;;0.85;;
36205;SDS011;22242;48.796;9.930;2022-07-26T12:44:55;1.83;;;0.80;;
36205;SDS011;22242;48.796;9.930;2022-07-26T12:47:23;1.67;;;0.70;;
36205;SDS011;22242;48.796;9.930;2022-07-26T12:49:50;6.07;;;0.93;;
36205;SDS011;22242;48.796;9.930;2022-07-26T12:52:19;2.20;;;0.77;;
36205;SDS011;22242;48.796;9.930;2022-07-26T12:54:48;1.75;;;0.70;;
36205;SDS011;22242;48.796;9.930;2022-07-26T12:57:16;2.17;;;0.70;;
36205;SDS011;22242;48.796;9.930;2022-07-26T12:59:45;1.58;;;0.80;;
36205;SDS011;22242;48.796;9.930;2022-07-26T13:02:13;2.22;;;0.80;;
36205;SDS011;22242;48.796;9.930;2022-07-26T13:04:40;2.30;;;0.80;;
36205;SDS011;22242;48.796;9.930;2022-07-26T13:07:07;0.85;;;0.65;;
36205;SDS011;22242;48.796;9.930;2022-07-26T13:09:34;1.85;;;0.60;;
36205;SDS011;22242;48.796;9.930;2022-07-26T13:12:02;3.33;;;0.77;;
36205;SDS011;22242;48.796;9.930;2022-07-26T13:14:30;3.72;;;0.70;;
36205;SDS011;22242;48.796;9.930;2022-07-26T13:16:59;1.40;;;0.80;;
36205;SDS011;22242;48.796;9.930;2022-07-26T13:19:27;0.75;;;0.70;;
36205;SDS011;22242;48.796;9.930;2022-07-26T13:21:54;1.42;;;0.70;;
36205;SDS011;22242;48.796;9.930;2022-07-26T13:24:23;1.30;;;0.57;;
36205;SDS011;22242;48.796;9.930;2022-07-26T13:26:50;1.55;;;0.82;;
36205;SDS011;22242;48.796;9.930;2022-07-26T13:29:17;1.67;;;0.70;;
36205;SDS011;22242;48.796;9.930;2022-07-26T13:31:45;1.17;;;0.90;;
36205;SDS011;22242;48.796;9.930;2022-07-26T13:34:13;0.88;;;0.77;;
36205;SDS011;22242;48.796;9.930;2022-07-26T13:36:43;0.60;;;0.60;;
36205;SDS011;22242;48.796;9.930;2022-07-26T13:39:10;0.85;;;0.50;;
36205;SDS011;22242;48.796;9.930;2022-07-26T13:41:38;3.50;;;0.70;;
36205;SDS011;22242;48.796;9.930;2022-07-26T13:44:04;2.13;;;0.55;;
36205;SDS011;22242;48.796;9.930;2022-07-26T13:46:31;1.27;;;0.52;;
36205;SDS011;22242;48.796;9.930;2022-07-26T13:49:00;1.25;;;0.80;;
36205;SDS011;22242;48.796;9.930;2022-07-26T13:51:29;0.80;;;0.60;;
36205;SDS011;22242;48.796;9.930;2022-07-26T13:54:16;1.20;;;0.63;;
36205;SDS011;22242;48.796;9.930;2022-07-26T13:56:45;1.35;;;0.60;;
36205;SDS011;22242;48.796;9.930;2022-07-26T13:59:12;1.27;;;0.88;;
36205;SDS011;22242;48.796;9.930;2022-07-26T14:01:40;1.90;;;0.70;;
36205;SDS011;22242;48.796;9.930;2022-07-26T14:04:07;0.60;;;0.60;;
36205;SDS011;22242;48.796;9.930;2022-07-26T14:06:36;3.53;;;0.75;;
36205;SDS011;22242;48.796;9.930;2022-07-26T14:09:04;0.75;;;0.70;;
36205;SDS011;22242;48.796;9.930;2022-07-26T14:11:33;0.95;;;0.60;;
36205;SDS011;22242;48.796;9.930;2022-07-26T14:14:00;2.05;;;0.70;;
36205;SDS011;22242;48.796;9.930;2022-07-26T14:16:27;0.63;;;0.57;;
36205;SDS011;22242;48.796;9.930;2022-07-26T14:18:54;1.92;;;0.60;;
36205;SDS011;22242;48.796;9.930;2022-07-26T14:21:22;1.15;;;0.63;;
36205;SDS011;22242;48.796;9.930;2022-07-26T14:23:51;1.75;;;0.60;;
36205;SDS011;22242;48.796;9.930;2022-07-26T14:26:18;0.77;;;0.47;;
36205;SDS011;22242;48.796;9.930;2022-07-26T14:28:44;0.47;;;0.47;;
36205;SDS011;22242;48.796;9.930;2022-07-26T14:31:12;0.50;;;0.50;;
36205;SDS011;22242;48.796;9.930;2022-07-26T14:33:39;1.27;;;0.40;;
36205;SDS011;22242;48.796;9.930;2022-07-26T14:36:06;0.93;;;0.70;;
36205;SDS011;22242;48.796;9.930;2022-07-26T14:38:34;0.77;;;0.60;;
36205;SDS011;22242;48.796;9.930;2022-07-26T14:41:02;0.82;;;0.50;;
36205;SDS011;22242;48.796;9.930;2022-07-26T14:43:29;2.13;;;0.40;;
36205;SDS011;22242;48.796;9.930;2022-07-26T14:45:56;1.00;;;0.50;;
36205;SDS011;22242;48.796;9.930;2022-07-26T14:48:23;2.60;;;0.52;;
36205;SDS011;22242;48.796;9.930;2022-07-26T14:50:49;3.47;;;0.60;;
36205;SDS011;22242;48.796;9.930;2022-07-26T14:53:17;1.20;;;0.50;;
36205;SDS011;22242;48.796;9.930;2022-07-26T14:55:44;1.30;;;0.70;;
36205;SDS011;22242;48.796;9.930;2022-07-26T14:58:13;0.98;;;0.60;;
36205;SDS011;22242;48.796;9.930;2022-07-26T15:00:39;1.92;;;0.60;;
36205;SDS011;22242;48.796;9.930;2022-07-26T15:03:07;1.00;;;0.60;;
36205;SDS011;22242;48.796;9.930;2022-07-26T15:05:34;2.10;;;0.52;;
36205;SDS011;22242;48.796;9.930;2022-07-26T15:08:01;0.70;;;0.50;;
36205;SDS011;22242;48.796;9.930;2022-07-26T15:10:29;2.08;;;0.43;;